Fox Island, Washington
Current Conditions -  °F | °C
As of 7:53 PM on Friday 28 Nov 2014 (Local Time) from KTIW Reporting Station
Overcast Overcast  
Wind Chill:   Ceiling: 3200
Heat Index:   Visibility: 10mi
Dew Point:   Wind: 3mph
Humidity: 89%   Direction: 120°ESE
Pressure: 29.52"   Gusts: NA
Location:  47.25°N, 122.63°W
Report Text: KTIW 290353Z 12003KT 10SM SCT018 BKN032 OVC039 04/02 A2952 RMK AO2 RAE0256 SLP997 P0000 T00390022
Loading
Personal Weather Stations






























Interactive Weather Map New forecast layout! Learn more

10-Day Weather Forecast

Advertisements
Track Severe Weather on mobile